sensor_id;sensor_type;location;lat;lon;timestamp;temperature;humidity
30379;DHT22;17168;49.164;9.060;2023-04-01T00:00:58;14.00;93.80
30379;DHT22;17168;49.164;9.060;2023-04-01T00:03:31;14.10;93.30
30379;DHT22;17168;49.164;9.060;2023-04-01T00:06:04;14.00;92.80
30379;DHT22;17168;49.164;9.060;2023-04-01T00:08:39;14.10;93.00
30379;DHT22;17168;49.164;9.060;2023-04-01T00:11:12;14.10;93.00
30379;DHT22;17168;49.164;9.060;2023-04-01T00:13:44;14.10;92.70
30379;DHT22;17168;49.164;9.060;2023-04-01T00:16:17;14.10;92.60
30379;DHT22;17168;49.164;9.060;2023-04-01T00:18:53;14.10;92.50
30379;DHT22;17168;49.164;9.060;2023-04-01T00:21:25;14.20;92.30
30379;DHT22;17168;49.164;9.060;2023-04-01T00:24:00;14.20;92.30
30379;DHT22;17168;49.164;9.060;2023-04-01T00:26:32;14.20;92.40
30379;DHT22;17168;49.164;9.060;2023-04-01T00:29:04;14.20;92.20
30379;DHT22;17168;49.164;9.060;2023-04-01T00:31:37;14.20;91.90
30379;DHT22;17168;49.164;9.060;2023-04-01T00:34:09;14.20;91.80
30379;DHT22;17168;49.164;9.060;2023-04-01T00:36:41;14.20;91.50
30379;DHT22;17168;49.164;9.060;2023-04-01T00:39:16;14.10;91.20
30379;DHT22;17168;49.164;9.060;2023-04-01T00:41:48;14.20;90.90
30379;DHT22;17168;49.164;9.060;2023-04-01T00:44:23;14.00;91.10
30379;DHT22;17168;49.164;9.060;2023-04-01T00:46:55;14.10;91.30
30379;DHT22;17168;49.164;9.060;2023-04-01T00:49:30;14.10;91.10
30379;DHT22;17168;49.164;9.060;2023-04-01T00:52:04;14.10;90.90
30379;DHT22;17168;49.164;9.060;2023-04-01T00:54:41;13.70;90.60
30379;DHT22;17168;49.164;9.060;2023-04-01T00:57:18;13.60;90.70
30379;DHT22;17168;49.164;9.060;2023-04-01T00:59:54;13.30;90.80
30379;DHT22;17168;49.164;9.060;2023-04-01T01:02:26;13.10;91.00
30379;DHT22;17168;49.164;9.060;2023-04-01T01:04:58;12.90;91.20
30379;DHT22;17168;49.164;9.060;2023-04-01T01:07:36;12.70;91.50
30379;DHT22;17168;49.164;9.060;2023-04-01T01:10:17;12.50;91.90
30379;DHT22;17168;49.164;9.060;2023-04-01T01:12:57;12.30;92.30
30379;DHT22;17168;49.164;9.060;2023-04-01T01:15:37;12.20;92.60
30379;DHT22;17168;49.164;9.060;2023-04-01T01:18:16;12.10;93.10
30379;DHT22;17168;49.164;9.060;2023-04-01T01:21:13;12.00;93.40
30379;DHT22;17168;49.164;9.060;2023-04-01T01:24:14;11.90;93.70
30379;DHT22;17168;49.164;9.060;2023-04-01T01:26:55;11.80;94.00
30379;DHT22;17168;49.164;9.060;2023-04-01T01:33:06;11.70;94.50
30379;DHT22;17168;49.164;9.060;2023-04-01T01:35:46;11.70;94.80
30379;DHT22;17168;49.164;9.060;2023-04-01T01:38:22;11.60;95.10
30379;DHT22;17168;49.164;9.060;2023-04-01T01:40:55;11.60;95.20
30379;DHT22;17168;49.164;9.060;2023-04-01T01:43:32;11.50;95.40
30379;DHT22;17168;49.164;9.060;2023-04-01T01:46:07;11.50;95.60
30379;DHT22;17168;49.164;9.060;2023-04-01T01:48:42;11.50;95.70
30379;DHT22;17168;49.164;9.060;2023-04-01T01:51:18;11.50;95.70
30379;DHT22;17168;49.164;9.060;2023-04-01T01:53:51;11.50;95.80
30379;DHT22;17168;49.164;9.060;2023-04-01T01:56:26;11.50;95.70
30379;DHT22;17168;49.164;9.060;2023-04-01T01:59:02;11.50;95.70
30379;DHT22;17168;49.164;9.060;2023-04-01T02:01:39;11.50;95.70
30379;DHT22;17168;49.164;9.060;2023-04-01T02:04:13;11.50;95.60
30379;DHT22;17168;49.164;9.060;2023-04-01T02:10:15;11.50;95.90
30379;DHT22;17168;49.164;9.060;2023-04-01T02:12:48;11.50;96.00
30379;DHT22;17168;49.164;9.060;2023-04-01T02:15:21;11.50;96.10
30379;DHT22;17168;49.164;9.060;2023-04-01T02:17:55;11.50;96.40
30379;DHT22;17168;49.164;9.060;2023-04-01T02:20:29;11.50;96.30
30379;DHT22;17168;49.164;9.060;2023-04-01T02:23:02;11.40;96.30
30379;DHT22;17168;49.164;9.060;2023-04-01T02:25:38;11.40;96.30
30379;DHT22;17168;49.164;9.060;2023-04-01T02:28:12;11.50;96.50
30379;DHT22;17168;49.164;9.060;2023-04-01T02:30:47;11.40;96.60
30379;DHT22;17168;49.164;9.060;2023-04-01T02:33:21;11.40;96.70
30379;DHT22;17168;49.164;9.060;2023-04-01T02:35:54;11.40;96.70
30379;DHT22;17168;49.164;9.060;2023-04-01T02:38:26;11.40;96.60
30379;DHT22;17168;49.164;9.060;2023-04-01T02:41:02;11.40;96.70
30379;DHT22;17168;49.164;9.060;2023-04-01T02:43:35;11.40;96.80
30379;DHT22;17168;49.164;9.060;2023-04-01T02:46:07;11.40;96.70
30379;DHT22;17168;49.164;9.060;2023-04-01T02:48:39;11.40;96.40
30379;DHT22;17168;49.164;9.060;2023-04-01T02:51:11;11.40;96.40
30379;DHT22;17168;49.164;9.060;2023-04-01T02:53:43;11.40;96.40
30379;DHT22;17168;49.164;9.060;2023-04-01T02:56:18;11.40;96.20
30379;DHT22;17168;49.164;9.060;2023-04-01T02:58:51;11.40;96.20
30379;DHT22;17168;49.164;9.060;2023-04-01T03:01:24;11.40;96.00
30379;DHT22;17168;49.164;9.060;2023-04-01T03:03:56;11.40;96.00
30379;DHT22;17168;49.164;9.060;2023-04-01T03:06:28;11.30;95.90
30379;DHT22;17168;49.164;9.060;2023-04-01T03:09:00;11.30;95.90
30379;DHT22;17168;49.164;9.060;2023-04-01T03:11:35;11.30;96.00
30379;DHT22;17168;49.164;9.060;2023-04-01T03:14:07;11.30;95.80
30379;DHT22;17168;49.164;9.060;2023-04-01T03:16:39;11.30;95.80
30379;DHT22;17168;49.164;9.060;2023-04-01T03:19:11;11.30;95.80
30379;DHT22;17168;49.164;9.060;2023-04-01T03:21:43;11.30;95.80
30379;DHT22;17168;49.164;9.060;2023-04-01T03:24:16;11.30;95.70
30379;DHT22;17168;49.164;9.060;2023-04-01T03:26:50;11.30;95.50
30379;DHT22;17168;49.164;9.060;2023-04-01T03:29:23;11.30;95.50
30379;DHT22;17168;49.164;9.060;2023-04-01T03:31:55;11.30;95.50
30379;DHT22;17168;49.164;9.060;2023-04-01T03:34:31;11.30;95.50
30379;DHT22;17168;49.164;9.060;2023-04-01T03:37:03;11.30;95.50
30379;DHT22;17168;49.164;9.060;2023-04-01T03:39:35;11.30;95.40
30379;DHT22;17168;49.164;9.060;2023-04-01T03:42:10;11.30;95.40
30379;DHT22;17168;49.164;9.060;2023-04-01T03:44:42;11.30;95.50
30379;DHT22;17168;49.164;9.060;2023-04-01T03:47:14;11.30;95.40
30379;DHT22;17168;49.164;9.060;2023-04-01T03:49:46;11.30;95.40
30379;DHT22;17168;49.164;9.060;2023-04-01T03:52:18;11.30;95.50
30379;DHT22;17168;49.164;9.060;2023-04-01T03:54:50;11.30;95.40
30379;DHT22;17168;49.164;9.060;2023-04-01T03:57:25;11.30;95.50
30379;DHT22;17168;49.164;9.060;2023-04-01T03:59:58;11.30;95.40
30379;DHT22;17168;49.164;9.060;2023-04-01T04:02:30;11.30;95.40
30379;DHT22;17168;49.164;9.060;2023-04-01T04:05:02;11.30;95.40
30379;DHT22;17168;49.164;9.060;2023-04-01T04:07:35;11.40;95.50
30379;DHT22;17168;49.164;9.060;2023-04-01T04:10:08;11.40;95.40
30379;DHT22;17168;49.164;9.060;2023-04-01T04:12:43;11.40;95.50
30379;DHT22;17168;49.164;9.060;2023-04-01T04:15:15;11.40;95.50
30379;DHT22;17168;49.164;9.060;2023-04-01T04:17:47;11.40;95.50
30379;DHT22;17168;49.164;9.060;2023-04-01T04:20:20;11.40;95.60
30379;DHT22;17168;49.164;9.060;2023-04-01T04:22:52;11.40;95.50
30379;DHT22;17168;49.164;9.060;2023-04-01T04:25:24;11.40;95.50
30379;DHT22;17168;49.164;9.060;2023-04-01T04:27:59;11.40;95.60
30379;DHT22;17168;49.164;9.060;2023-04-01T04:30:31;11.40;95.60
30379;DHT22;17168;49.164;9.060;2023-04-01T04:33:03;11.40;95.50
30379;DHT22;17168;49.164;9.060;2023-04-01T04:35:35;11.40;95.40
30379;DHT22;17168;49.164;9.060;2023-04-01T04:38:07;11.40;95.30
30379;DHT22;17168;49.164;9.060;2023-04-01T04:40:41;11.40;95.30
30379;DHT22;17168;49.164;9.060;2023-04-01T04:43:16;11.40;95.30
30379;DHT22;17168;49.164;9.060;2023-04-01T04:45:49;11.40;95.40
30379;DHT22;17168;49.164;9.060;2023-04-01T04:48:21;11.40;95.20
30379;DHT22;17168;49.164;9.060;2023-04-01T04:50:53;11.40;95.00
30379;DHT22;17168;49.164;9.060;2023-04-01T04:53:25;11.40;95.00
30379;DHT22;17168;49.164;9.060;2023-04-01T04:55:57;11.40;95.00
30379;DHT22;17168;49.164;9.060;2023-04-01T04:58:32;11.40;94.80
30379;DHT22;17168;49.164;9.060;2023-04-01T05:01:06;11.40;94.90
30379;DHT22;17168;49.164;9.060;2023-04-01T05:03:39;11.40;94.90
30379;DHT22;17168;49.164;9.060;2023-04-01T05:06:14;11.50;94.80
30379;DHT22;17168;49.164;9.060;2023-04-01T05:08:46;11.40;94.70
30379;DHT22;17168;49.164;9.060;2023-04-01T05:11:20;11.50;94.70
30379;DHT22;17168;49.164;9.060;2023-04-01T05:13:55;11.50;94.50
30379;DHT22;17168;49.164;9.060;2023-04-01T05:16:27;11.50;94.50
30379;DHT22;17168;49.164;9.060;2023-04-01T05:18:59;11.40;94.40
30379;DHT22;17168;49.164;9.060;2023-04-01T05:21:32;11.40;94.40
30379;DHT22;17168;49.164;9.060;2023-04-01T05:24:07;11.40;94.40
30379;DHT22;17168;49.164;9.060;2023-04-01T05:26:40;11.40;94.40
30379;DHT22;17168;49.164;9.060;2023-04-01T05:29:15;11.40;94.50
30379;DHT22;17168;49.164;9.060;2023-04-01T05:31:47;11.40;94.40
30379;DHT22;17168;49.164;9.060;2023-04-01T05:34:19;11.40;94.30
30379;DHT22;17168;49.164;9.060;2023-04-01T05:36:51;11.40;94.40
30379;DHT22;17168;49.164;9.060;2023-04-01T05:39:24;11.50;94.40
30379;DHT22;17168;49.164;9.060;2023-04-01T05:41:56;11.50;94.30
30379;DHT22;17168;49.164;9.060;2023-04-01T05:44:31;11.50;94.30
30379;DHT22;17168;49.164;9.060;2023-04-01T05:47:04;11.50;94.10
30379;DHT22;17168;49.164;9.060;2023-04-01T05:49:36;11.50;94.10
30379;DHT22;17168;49.164;9.060;2023-04-01T05:52:08;11.50;93.90
30379;DHT22;17168;49.164;9.060;2023-04-01T05:54:40;11.60;94.00
30379;DHT22;17168;49.164;9.060;2023-04-01T05:57:12;11.60;93.90
30379;DHT22;17168;49.164;9.060;2023-04-01T05:59:47;11.60;93.90
30379;DHT22;17168;49.164;9.060;2023-04-01T06:02:19;11.60;93.90
30379;DHT22;17168;49.164;9.060;2023-04-01T06:05:01;11.60;93.90
30379;DHT22;17168;49.164;9.060;2023-04-01T06:07:35;11.60;93.90
30379;DHT22;17168;49.164;9.060;2023-04-01T06:10:13;11.60;93.70
30379;DHT22;17168;49.164;9.060;2023-04-01T06:12:51;11.70;93.80
30379;DHT22;17168;49.164;9.060;2023-04-01T06:15:38;11.60;93.80
30379;DHT22;17168;49.164;9.060;2023-04-01T06:18:37;11.70;93.70
30379;DHT22;17168;49.164;9.060;2023-04-01T06:21:26;11.70;93.50
30379;DHT22;17168;49.164;9.060;2023-04-01T06:24:11;11.70;93.50
30379;DHT22;17168;49.164;9.060;2023-04-01T06:26:57;11.70;93.60
30379;DHT22;17168;49.164;9.060;2023-04-01T06:29:55;11.70;93.80
30379;DHT22;17168;49.164;9.060;2023-04-01T06:32:46;11.70;93.70
30379;DHT22;17168;49.164;9.060;2023-04-01T06:35:31;11.70;93.60
30379;DHT22;17168;49.164;9.060;2023-04-01T06:38:24;11.70;93.70
30379;DHT22;17168;49.164;9.060;2023-04-01T06:44:16;11.70;94.00
30379;DHT22;17168;49.164;9.060;2023-04-01T06:46:57;11.60;94.20
30379;DHT22;17168;49.164;9.060;2023-04-01T06:49:44;11.60;94.30
30379;DHT22;17168;49.164;9.060;2023-04-01T06:52:22;11.60;94.40
30379;DHT22;17168;49.164;9.060;2023-04-01T06:55:02;11.60;94.50
30379;DHT22;17168;49.164;9.060;2023-04-01T06:57:41;11.50;94.60
30379;DHT22;17168;49.164;9.060;2023-04-01T07:00:20;11.50;95.00
30379;DHT22;17168;49.164;9.060;2023-04-01T07:03:01;11.50;94.70
30379;DHT22;17168;49.164;9.060;2023-04-01T07:05:40;11.50;95.00
30379;DHT22;17168;49.164;9.060;2023-04-01T07:08:16;11.50;95.10
30379;DHT22;17168;49.164;9.060;2023-04-01T07:10:54;11.60;95.20
30379;DHT22;17168;49.164;9.060;2023-04-01T07:13:32;11.50;95.40
30379;DHT22;17168;49.164;9.060;2023-04-01T07:16:12;11.50;95.60
30379;DHT22;17168;49.164;9.060;2023-04-01T07:18:49;11.50;95.70
30379;DHT22;17168;49.164;9.060;2023-04-01T07:21:29;11.50;95.90
30379;DHT22;17168;49.164;9.060;2023-04-01T07:24:06;11.50;96.00
30379;DHT22;17168;49.164;9.060;2023-04-01T07:26:40;11.50;96.10
30379;DHT22;17168;49.164;9.060;2023-04-01T07:29:14;11.40;96.30
30379;DHT22;17168;49.164;9.060;2023-04-01T07:31:58;11.40;96.50
30379;DHT22;17168;49.164;9.060;2023-04-01T07:34:47;11.40;96.70
30379;DHT22;17168;49.164;9.060;2023-04-01T07:37:29;11.40;96.70
30379;DHT22;17168;49.164;9.060;2023-04-01T07:40:13;11.40;96.80
30379;DHT22;17168;49.164;9.060;2023-04-01T07:42:56;11.40;96.70
30379;DHT22;17168;49.164;9.060;2023-04-01T07:45:36;11.40;96.80
30379;DHT22;17168;49.164;9.060;2023-04-01T07:48:18;11.40;96.70
30379;DHT22;17168;49.164;9.060;2023-04-01T07:50:56;11.40;96.90
30379;DHT22;17168;49.164;9.060;2023-04-01T07:53:37;11.40;97.10
30379;DHT22;17168;49.164;9.060;2023-04-01T07:56:16;11.30;97.20
30379;DHT22;17168;49.164;9.060;2023-04-01T07:58:52;11.30;97.40
30379;DHT22;17168;49.164;9.060;2023-04-01T08:01:31;11.30;97.50
30379;DHT22;17168;49.164;9.060;2023-04-01T08:04:24;11.30;97.80
30379;DHT22;17168;49.164;9.060;2023-04-01T08:07:03;11.20;98.10
30379;DHT22;17168;49.164;9.060;2023-04-01T08:09:45;11.20;98.50
30379;DHT22;17168;49.164;9.060;2023-04-01T08:12:27;11.10;99.10
30379;DHT22;17168;49.164;9.060;2023-04-01T08:15:11;11.10;99.90
30379;DHT22;17168;49.164;9.060;2023-04-01T08:17:53;11.00;99.90
30379;DHT22;17168;49.164;9.060;2023-04-01T08:20:32;10.90;99.90
30379;DHT22;17168;49.164;9.060;2023-04-01T08:23:11;10.80;99.90
30379;DHT22;17168;49.164;9.060;2023-04-01T08:25:51;10.70;99.90
30379;DHT22;17168;49.164;9.060;2023-04-01T08:28:30;10.60;99.90
30379;DHT22;17168;49.164;9.060;2023-04-01T08:31:06;10.40;99.90
30379;DHT22;17168;49.164;9.060;2023-04-01T08:33:42;10.40;99.90
30379;DHT22;17168;49.164;9.060;2023-04-01T08:36:19;10.30;99.90
30379;DHT22;17168;49.164;9.060;2023-04-01T08:38:54;10.30;99.90
30379;DHT22;17168;49.164;9.060;2023-04-01T08:41:48;10.20;99.90
30379;DHT22;17168;49.164;9.060;2023-04-01T08:44:38;10.10;99.90
30379;DHT22;17168;49.164;9.060;2023-04-01T08:47:37;10.10;99.90
30379;DHT22;17168;49.164;9.060;2023-04-01T08:50:26;10.00;99.90
30379;DHT22;17168;49.164;9.060;2023-04-01T08:53:07;10.00;99.90
30379;DHT22;17168;49.164;9.060;2023-04-01T08:55:51;10.00;99.90
30379;DHT22;17168;49.164;9.060;2023-04-01T08:58:50;10.00;99.90
30379;DHT22;17168;49.164;9.060;2023-04-01T09:01:47;10.00;99.90
30379;DHT22;17168;49.164;9.060;2023-04-01T09:04:29;10.10;99.90
30379;DHT22;17168;49.164;9.060;2023-04-01T09:07:12;10.10;99.90
30379;DHT22;17168;49.164;9.060;2023-04-01T09:13:16;10.10;99.90
30379;DHT22;17168;49.164;9.060;2023-04-01T09:16:22;10.10;99.90
30379;DHT22;17168;49.164;9.060;2023-04-01T09:19:11;10.20;99.90
30379;DHT22;17168;49.164;9.060;2023-04-01T09:21:49;10.20;99.90
30379;DHT22;17168;49.164;9.060;2023-04-01T09:24:43;10.20;99.90
30379;DHT22;17168;49.164;9.060;2023-04-01T09:27:27;10.30;99.90
30379;DHT22;17168;49.164;9.060;2023-04-01T09:30:34;10.30;99.90
30379;DHT22;17168;49.164;9.060;2023-04-01T09:36:34;10.40;99.90
30379;DHT22;17168;49.164;9.060;2023-04-01T09:39:25;10.50;99.90
30379;DHT22;17168;49.164;9.060;2023-04-01T09:42:15;10.50;99.90
30379;DHT22;17168;49.164;9.060;2023-04-01T09:44:52;10.50;99.90
30379;DHT22;17168;49.164;9.060;2023-04-01T09:47:48;10.60;99.90
30379;DHT22;17168;49.164;9.060;2023-04-01T09:50:34;10.60;99.90
30379;DHT22;17168;49.164;9.060;2023-04-01T09:53:18;10.70;99.90
30379;DHT22;17168;49.164;9.060;2023-04-01T09:59:37;10.80;99.90
30379;DHT22;17168;49.164;9.060;2023-04-01T10:02:35;10.80;99.90
30379;DHT22;17168;49.164;9.060;2023-04-01T10:15:08;11.00;99.90
30379;DHT22;17168;49.164;9.060;2023-04-01T10:18:08;11.00;99.90
30379;DHT22;17168;49.164;9.060;2023-04-01T10:21:07;11.10;99.90
30379;DHT22;17168;49.164;9.060;2023-04-01T10:24:13;11.10;99.90
30379;DHT22;17168;49.164;9.060;2023-04-01T10:27:10;11.10;99.90
30379;DHT22;17168;49.164;9.060;2023-04-01T10:33:08;11.00;99.90
30379;DHT22;17168;49.164;9.060;2023-04-01T10:36:13;10.90;99.90
30379;DHT22;17168;49.164;9.060;2023-04-01T10:39:12;10.90;99.90
30379;DHT22;17168;49.164;9.060;2023-04-01T10:52:12;10.70;99.90
30379;DHT22;17168;49.164;9.060;2023-04-01T10:55:10;10.80;99.90
30379;DHT22;17168;49.164;9.060;2023-04-01T11:07:27;10.70;99.90
30379;DHT22;17168;49.164;9.060;2023-04-01T11:13:37;10.60;99.90
30379;DHT22;17168;49.164;9.060;2023-04-01T11:16:35;10.60;99.90
30379;DHT22;17168;49.164;9.060;2023-04-01T11:19:30;10.50;99.90
30379;DHT22;17168;49.164;9.060;2023-04-01T11:22:24;10.50;99.90
30379;DHT22;17168;49.164;9.060;2023-04-01T11:28:50;10.50;99.90
30379;DHT22;17168;49.164;9.060;2023-04-01T11:31:42;10.40;99.90
30379;DHT22;17168;49.164;9.060;2023-04-01T11:34:31;10.40;99.90
30379;DHT22;17168;49.164;9.060;2023-04-01T11:37:16;10.40;99.90
30379;DHT22;17168;49.164;9.060;2023-04-01T11:39:59;10.30;99.90
30379;DHT22;17168;49.164;9.060;2023-04-01T11:42:41;10.30;99.90
30379;DHT22;17168;49.164;9.060;2023-04-01T11:45:27;10.30;99.90
30379;DHT22;17168;49.164;9.060;2023-04-01T11:48:32;10.30;99.90
30379;DHT22;17168;49.164;9.060;2023-04-01T11:51:28;10.30;99.90
30379;DHT22;17168;49.164;9.060;2023-04-01T11:54:10;10.30;99.90
30379;DHT22;17168;49.164;9.060;2023-04-01T11:57:05;10.40;99.90
30379;DHT22;17168;49.164;9.060;2023-04-01T11:59:58;10.40;99.90
30379;DHT22;17168;49.164;9.060;2023-04-01T12:02:46;10.40;99.90
30379;DHT22;17168;49.164;9.060;2023-04-01T12:05:30;10.40;99.90
30379;DHT22;17168;49.164;9.060;2023-04-01T12:08:24;10.40;99.90
30379;DHT22;17168;49.164;9.060;2023-04-01T12:11:07;10.40;99.90
30379;DHT22;17168;49.164;9.060;2023-04-01T12:13:48;10.40;99.90
30379;DHT22;17168;49.164;9.060;2023-04-01T12:16:41;10.50;99.90
30379;DHT22;17168;49.164;9.060;2023-04-01T12:19:26;10.40;99.90
30379;DHT22;17168;49.164;9.060;2023-04-01T12:22:27;10.40;99.90
30379;DHT22;17168;49.164;9.060;2023-04-01T12:25:07;10.50;99.90
30379;DHT22;17168;49.164;9.060;2023-04-01T12:27:54;10.50;99.90
30379;DHT22;17168;49.164;9.060;2023-04-01T12:30:54;10.50;99.90
30379;DHT22;17168;49.164;9.060;2023-04-01T12:33:52;10.50;99.90
30379;DHT22;17168;49.164;9.060;2023-04-01T12:36:35;10.50;99.90
30379;DHT22;17168;49.164;9.060;2023-04-01T12:39:27;10.50;99.90
30379;DHT22;17168;49.164;9.060;2023-04-01T12:42:11;10.50;99.90
30379;DHT22;17168;49.164;9.060;2023-04-01T12:45:00;10.50;99.90
30379;DHT22;17168;49.164;9.060;2023-04-01T12:47:56;10.50;99.90
30379;DHT22;17168;49.164;9.060;2023-04-01T12:50:44;10.60;99.90
30379;DHT22;17168;49.164;9.060;2023-04-01T12:53:37;10.60;99.90
30379;DHT22;17168;49.164;9.060;2023-04-01T12:56:17;10.70;99.90
30379;DHT22;17168;49.164;9.060;2023-04-01T13:02:01;10.70;99.90
30379;DHT22;17168;49.164;9.060;2023-04-01T13:04:56;10.70;99.90
30379;DHT22;17168;49.164;9.060;2023-04-01T13:07:45;10.70;99.90
30379;DHT22;17168;49.164;9.060;2023-04-01T13:10:37;10.80;99.90
30379;DHT22;17168;49.164;9.060;2023-04-01T13:13:32;10.80;99.90
30379;DHT22;17168;49.164;9.060;2023-04-01T13:16:11;10.70;99.90
30379;DHT22;17168;49.164;9.060;2023-04-01T13:18:55;10.70;99.90
30379;DHT22;17168;49.164;9.060;2023-04-01T13:21:37;10.70;99.90
30379;DHT22;17168;49.164;9.060;2023-04-01T13:24:28;10.70;99.90
30379;DHT22;17168;49.164;9.060;2023-04-01T13:27:08;10.70;99.90
30379;DHT22;17168;49.164;9.060;2023-04-01T13:29:44;10.70;99.90
30379;DHT22;17168;49.164;9.060;2023-04-01T13:32:29;10.70;99.90
30379;DHT22;17168;49.164;9.060;2023-04-01T13:35:26;10.70;99.90
30379;DHT22;17168;49.164;9.060;2023-04-01T13:38:17;10.70;99.90
30379;DHT22;17168;49.164;9.060;2023-04-01T13:41:02;10.70;99.90
30379;DHT22;17168;49.164;9.060;2023-04-01T13:43:39;10.70;99.90
30379;DHT22;17168;49.164;9.060;2023-04-01T13:46:25;10.80;99.90
30379;DHT22;17168;49.164;9.060;2023-04-01T13:55:26;10.80;99.90
30379;DHT22;17168;49.164;9.060;2023-04-01T13:58:24;10.80;99.90
30379;DHT22;17168;49.164;9.060;2023-04-01T14:01:12;10.80;99.90
30379;DHT22;17168;49.164;9.060;2023-04-01T14:06:57;10.80;99.90
30379;DHT22;17168;49.164;9.060;2023-04-01T14:12:36;10.80;99.90
30379;DHT22;17168;49.164;9.060;2023-04-01T14:15:34;10.80;99.90
30379;DHT22;17168;49.164;9.060;2023-04-01T14:18:33;10.80;99.90
30379;DHT22;17168;49.164;9.060;2023-04-01T14:21:19;10.90;99.90
30379;DHT22;17168;49.164;9.060;2023-04-01T14:24:08;10.90;99.90
30379;DHT22;17168;49.164;9.060;2023-04-01T14:30:15;10.90;99.90
30379;DHT22;17168;49.164;9.060;2023-04-01T14:32:54;10.90;99.90
30379;DHT22;17168;49.164;9.060;2023-04-01T14:35:37;10.90;99.90
30379;DHT22;17168;49.164;9.060;2023-04-01T14:38:25;11.00;99.90
30379;DHT22;17168;49.164;9.060;2023-04-01T14:41:06;11.00;99.90
30379;DHT22;17168;49.164;9.060;2023-04-01T14:44:11;11.00;99.90
30379;DHT22;17168;49.164;9.060;2023-04-01T14:50:12;11.00;99.90
30379;DHT22;17168;49.164;9.060;2023-04-01T14:52:55;11.00;99.90
30379;DHT22;17168;49.164;9.060;2023-04-01T14:55:32;11.10;99.90
30379;DHT22;17168;49.164;9.060;2023-04-01T14:58:10;11.10;99.90
30379;DHT22;17168;49.164;9.060;2023-04-01T15:00:58;11.10;99.90
30379;DHT22;17168;49.164;9.060;2023-04-01T15:03:36;11.20;99.90
30379;DHT22;17168;49.164;9.060;2023-04-01T15:06:26;11.20;99.90
30379;DHT22;17168;49.164;9.060;2023-04-01T15:09:12;11.20;99.90
30379;DHT22;17168;49.164;9.060;2023-04-01T15:11:54;11.10;99.90
30379;DHT22;17168;49.164;9.060;2023-04-01T15:14:45;11.10;99.90
30379;DHT22;17168;49.164;9.060;2023-04-01T15:17:43;11.10;99.90
30379;DHT22;17168;49.164;9.060;2023-04-01T15:20:32;11.20;99.90
30379;DHT22;17168;49.164;9.060;2023-04-01T15:23:15;11.20;99.90
30379;DHT22;17168;49.164;9.060;2023-04-01T15:28:59;11.10;99.90
30379;DHT22;17168;49.164;9.060;2023-04-01T15:31:38;11.10;99.90
30379;DHT22;17168;49.164;9.060;2023-04-01T15:34:24;11.10;99.90
30379;DHT22;17168;49.164;9.060;2023-04-01T15:37:02;11.10;99.90
30379;DHT22;17168;49.164;9.060;2023-04-01T15:39:49;11.10;99.90
30379;DHT22;17168;49.164;9.060;2023-04-01T15:42:47;11.10;99.90
30379;DHT22;17168;49.164;9.060;2023-04-01T15:45:41;11.10;99.90
30379;DHT22;17168;49.164;9.060;2023-04-01T15:48:25;11.10;99.90
30379;DHT22;17168;49.164;9.060;2023-04-01T15:51:19;11.20;99.90
30379;DHT22;17168;49.164;9.060;2023-04-01T15:54:11;11.20;99.90
30379;DHT22;17168;49.164;9.060;2023-04-01T16:00:06;11.30;99.90
30379;DHT22;17168;49.164;9.060;2023-04-01T16:02:46;11.30;99.90
30379;DHT22;17168;49.164;9.060;2023-04-01T16:05:33;11.30;99.90
30379;DHT22;17168;49.164;9.060;2023-04-01T16:08:29;11.30;99.90
30379;DHT22;17168;49.164;9.060;2023-04-01T16:11:13;11.30;99.90
30379;DHT22;17168;49.164;9.060;2023-04-01T16:13:55;11.30;99.90
30379;DHT22;17168;49.164;9.060;2023-04-01T16:16:46;11.40;99.90
30379;DHT22;17168;49.164;9.060;2023-04-01T16:19:37;11.40;99.90
30379;DHT22;17168;49.164;9.060;2023-04-01T16:22:14;11.30;99.90
30379;DHT22;17168;49.164;9.060;2023-04-01T16:24:53;11.40;99.90
30379;DHT22;17168;49.164;9.060;2023-04-01T16:27:32;11.40;99.90
30379;DHT22;17168;49.164;9.060;2023-04-01T16:30:25;11.40;99.90
30379;DHT22;17168;49.164;9.060;2023-04-01T16:33:04;11.40;99.90
30379;DHT22;17168;49.164;9.060;2023-04-01T16:35:44;11.50;99.90
30379;DHT22;17168;49.164;9.060;2023-04-01T16:38:24;11.40;99.90
30379;DHT22;17168;49.164;9.060;2023-04-01T16:41:09;11.50;99.90
30379;DHT22;17168;49.164;9.060;2023-04-01T16:43:44;11.50;99.90
30379;DHT22;17168;49.164;9.060;2023-04-01T16:46:29;11.40;99.90
30379;DHT22;17168;49.164;9.060;2023-04-01T16:49:29;11.40;99.90
30379;DHT22;17168;49.164;9.060;2023-04-01T16:52:14;11.40;99.90
30379;DHT22;17168;49.164;9.060;2023-04-01T16:54:53;11.40;99.90
30379;DHT22;17168;49.164;9.060;2023-04-01T16:57:35;11.40;99.90
30379;DHT22;17168;49.164;9.060;2023-04-01T17:00:17;11.40;99.90
30379;DHT22;17168;49.164;9.060;2023-04-01T17:02:58;11.40;99.90
30379;DHT22;17168;49.164;9.060;2023-04-01T17:05:43;11.40;99.90
30379;DHT22;17168;49.164;9.060;2023-04-01T17:08:40;11.40;99.90
30379;DHT22;17168;49.164;9.060;2023-04-01T17:11:18;11.50;99.90
30379;DHT22;17168;49.164;9.060;2023-04-01T17:14:01;11.40;99.90
30379;DHT22;17168;49.164;9.060;2023-04-01T17:16:51;11.40;99.90
30379;DHT22;17168;49.164;9.060;2023-04-01T17:22:27;11.40;99.90
30379;DHT22;17168;49.164;9.060;2023-04-01T17:27:59;11.30;99.90
30379;DHT22;17168;49.164;9.060;2023-04-01T17:30:35;11.30;99.90
30379;DHT22;17168;49.164;9.060;2023-04-01T17:33:26;11.30;99.90
30379;DHT22;17168;49.164;9.060;2023-04-01T17:36:06;11.20;99.90
30379;DHT22;17168;49.164;9.060;2023-04-01T17:39:00;11.10;99.90
30379;DHT22;17168;49.164;9.060;2023-04-01T17:41:42;11.10;99.90
30379;DHT22;17168;49.164;9.060;2023-04-01T17:44:26;11.10;99.90
30379;DHT22;17168;49.164;9.060;2023-04-01T17:47:22;11.00;99.90
30379;DHT22;17168;49.164;9.060;2023-04-01T17:50:02;10.90;99.90
30379;DHT22;17168;49.164;9.060;2023-04-01T17:52:43;10.90;99.90
30379;DHT22;17168;49.164;9.060;2023-04-01T17:55:41;10.90;99.90
30379;DHT22;17168;49.164;9.060;2023-04-01T17:58:19;10.90;99.90
30379;DHT22;17168;49.164;9.060;2023-04-01T18:01:06;10.80;99.90
30379;DHT22;17168;49.164;9.060;2023-04-01T18:03:58;10.80;99.90
30379;DHT22;17168;49.164;9.060;2023-04-01T18:06:35;10.80;99.90
30379;DHT22;17168;49.164;9.060;2023-04-01T18:09:18;10.70;99.90
30379;DHT22;17168;49.164;9.060;2023-04-01T18:12:04;10.70;99.90
30379;DHT22;17168;49.164;9.060;2023-04-01T18:15:02;10.70;99.90
30379;DHT22;17168;49.164;9.060;2023-04-01T18:17:45;10.70;99.90
30379;DHT22;17168;49.164;9.060;2023-04-01T18:20:37;10.60;99.90
30379;DHT22;17168;49.164;9.060;2023-04-01T18:23:14;10.60;99.90
30379;DHT22;17168;49.164;9.060;2023-04-01T18:25:54;10.60;99.90
30379;DHT22;17168;49.164;9.060;2023-04-01T18:28:38;10.60;99.90
30379;DHT22;17168;49.164;9.060;2023-04-01T18:31:16;10.50;99.90
30379;DHT22;17168;49.164;9.060;2023-04-01T18:33:56;10.50;99.90